GLO410 SBEG-SBSN
Flight info
| Callsign | GLO410 |
|---|---|
| Flight time | 0h 50m |
| Altitude | 33000 |
| Route | XOLOK UZ81 TOBUX DCT STM |
| Aircraft | B738/M-SDE2E3FGHIRWXY/LB1 |
Departure
| Time | 2026-04-21 01:03 |
|---|---|
| Airport | Eduardo Gomes International Airport (SBEG) |
Arrival
| Time | 2026-04-21 01:53 |
|---|---|
| Airport | Santarém - Maestro Wilson Fonseca International Airport (SBSN) |
| Time | Latitude | Longitude | Altitude | Speed | Heading |
|---|---|---|---|---|---|
| 2026-04-21 00:28 | -3.03280 | -60.04639 | 298 ft | 0 kts | 1° |
| 2026-04-21 00:38 | -3.03284 | -60.04640 | 298 ft | 2 kts | 0° |
| 2026-04-21 00:38 | -3.03294 | -60.04640 | 300 ft | 2 kts | 0° |
| 2026-04-21 00:38 | -3.03307 | -60.04640 | 300 ft | 2 kts | 0° |
| 2026-04-21 00:39 | -3.03321 | -60.04640 | 300 ft | 2 kts | 360° |
| 2026-04-21 00:39 | -3.03334 | -60.04640 | 298 ft | 2 kts | 359° |
| 2026-04-21 00:39 | -3.03347 | -60.04638 | 298 ft | 2 kts | 332° |
| 2026-04-21 00:39 | -3.03358 | -60.04631 | 298 ft | 2 kts | 302° |
| 2026-04-21 00:40 | -3.03362 | -60.04625 | 301 ft | 0 kts | 284° |
| 2026-04-21 00:56 | -3.03362 | -60.04626 | 298 ft | 1 kts | 284° |
| 2026-04-21 00:56 | -3.03361 | -60.04661 | 298 ft | 10 kts | 269° |
| 2026-04-21 00:56 | -3.03384 | -60.04756 | 300 ft | 17 kts | 249° |
| 2026-04-21 00:56 | -3.03452 | -60.04854 | 297 ft | 17 kts | 220° |
| 2026-04-21 00:57 | -3.03535 | -60.04936 | 297 ft | 16 kts | 233° |
| 2026-04-21 00:57 | -3.03589 | -60.05034 | 296 ft | 16 kts | 252° |
| 2026-04-21 00:57 | -3.03623 | -60.05137 | 298 ft | 15 kts | 252° |
| 2026-04-21 00:57 | -3.03655 | -60.05236 | 299 ft | 15 kts | 252° |
| 2026-04-21 00:58 | -3.03678 | -60.05332 | 297 ft | 14 kts | 264° |
| 2026-04-21 00:58 | -3.03687 | -60.05427 | 296 ft | 13 kts | 264° |
| 2026-04-21 00:58 | -3.03691 | -60.05518 | 296 ft | 13 kts | 272° |
| 2026-04-21 00:58 | -3.03685 | -60.05606 | 295 ft | 13 kts | 274° |
| 2026-04-21 00:59 | -3.03686 | -60.05693 | 294 ft | 12 kts | 267° |
| 2026-04-21 00:59 | -3.03690 | -60.05777 | 297 ft | 12 kts | 268° |
| 2026-04-21 00:59 | -3.03691 | -60.05859 | 294 ft | 12 kts | 269° |
| 2026-04-21 00:59 | -3.03691 | -60.05938 | 294 ft | 11 kts | 270° |
| 2026-04-21 01:00 | -3.03691 | -60.06016 | 292 ft | 11 kts | 270° |
| 2026-04-21 01:00 | -3.03692 | -60.06091 | 296 ft | 11 kts | 260° |
| 2026-04-21 01:00 | -3.03726 | -60.06154 | 294 ft | 10 kts | 218° |
| 2026-04-21 01:00 | -3.03793 | -60.06174 | 292 ft | 10 kts | 189° |
| 2026-04-21 01:01 | -3.03820 | -60.06176 | 293 ft | 0 kts | 181° |
| 2026-04-21 01:01 | -3.03824 | -60.06176 | 293 ft | 1 kts | 181° |
| 2026-04-21 01:01 | -3.03849 | -60.06170 | 293 ft | 5 kts | 141° |
| 2026-04-21 01:01 | -3.03855 | -60.06149 | 293 ft | 0 kts | 90° |
| 2026-04-21 01:02 | -3.03856 | -60.05838 | 293 ft | 88 kts | 90° |
| 2026-04-21 01:02 | -3.03859 | -60.04963 | 298 ft | 161 kts | 90° |
| 2026-04-21 01:02 | -3.03880 | -60.03710 | 832 ft | 187 kts | 92° |
| 2026-04-21 01:03 | -3.03941 | -60.02359 | 1676 ft | 206 kts | 90° |
| 2026-04-21 01:03 | -3.03940 | -60.00826 | 2059 ft | 231 kts | 88° |
| 2026-04-21 01:03 | -3.03936 | -59.99176 | 2480 ft | 248 kts | 90° |
| 2026-04-21 01:03 | -3.03982 | -59.97393 | 2957 ft | 262 kts | 91° |
| 2026-04-21 01:04 | -3.04041 | -59.95554 | 3796 ft | 264 kts | 91° |
| 2026-04-21 01:04 | -3.04103 | -59.93714 | 4693 ft | 266 kts | 92° |
| 2026-04-21 01:04 | -3.04166 | -59.91848 | 5507 ft | 270 kts | 92° |
| 2026-04-21 01:04 | -3.04230 | -59.89963 | 6351 ft | 272 kts | 92° |
| 2026-04-21 01:05 | -3.04272 | -59.88705 | 6856 ft | 274 kts | 92° |
| 2026-04-21 01:05 | -3.04358 | -59.86154 | 7816 ft | 280 kts | 92° |
| 2026-04-21 01:05 | -3.04425 | -59.84189 | 8564 ft | 284 kts | 92° |
| 2026-04-21 01:05 | -3.04491 | -59.82199 | 9318 ft | 288 kts | 92° |
| 2026-04-21 01:06 | -3.04559 | -59.80179 | 10037 ft | 292 kts | 92° |
| 2026-04-21 01:06 | -3.04605 | -59.78817 | 10342 ft | 302 kts | 92° |
| 2026-04-21 01:06 | -3.04679 | -59.76632 | 10500 ft | 326 kts | 92° |
| 2026-04-21 01:06 | -3.04757 | -59.74287 | 10658 ft | 348 kts | 92° |
| 2026-04-21 01:07 | -3.04840 | -59.71801 | 10799 ft | 367 kts | 92° |
| 2026-04-21 01:07 | -3.04930 | -59.69193 | 11057 ft | 381 kts | 92° |
| 2026-04-21 01:07 | -3.05024 | -59.66527 | 11524 ft | 386 kts | 92° |
| 2026-04-21 01:07 | -3.05119 | -59.63828 | 12086 ft | 389 kts | 92° |
| 2026-04-21 01:08 | -3.05214 | -59.61112 | 12637 ft | 393 kts | 92° |
| 2026-04-21 01:08 | -3.05311 | -59.58366 | 13207 ft | 395 kts | 92° |
| 2026-04-21 01:08 | -3.05408 | -59.55614 | 13759 ft | 398 kts | 92° |
| 2026-04-21 01:08 | -3.05506 | -59.52833 | 14213 ft | 401 kts | 92° |
| 2026-04-21 01:09 | -3.05604 | -59.50038 | 14693 ft | 403 kts | 92° |
| 2026-04-21 01:09 | -3.05702 | -59.47225 | 15183 ft | 405 kts | 92° |
| 2026-04-21 01:09 | -3.05801 | -59.44396 | 15654 ft | 408 kts | 92° |
| 2026-04-21 01:09 | -3.05901 | -59.41553 | 16111 ft | 410 kts | 92° |
| 2026-04-21 01:10 | -3.05999 | -59.38729 | 16557 ft | 413 kts | 92° |
| 2026-04-21 01:10 | -3.06100 | -59.35854 | 17010 ft | 415 kts | 92° |
| 2026-04-21 01:10 | -3.06235 | -59.31976 | 17595 ft | 418 kts | 92° |
| 2026-04-21 01:10 | -3.06302 | -59.30048 | 17884 ft | 419 kts | 93° |
| 2026-04-21 01:11 | -3.06404 | -59.27125 | 18295 ft | 422 kts | 93° |
| 2026-04-21 01:11 | -3.06506 | -59.24182 | 18642 ft | 424 kts | 93° |
| 2026-04-21 01:11 | -3.06609 | -59.21227 | 18999 ft | 426 kts | 93° |
| 2026-04-21 01:11 | -3.06712 | -59.18258 | 19360 ft | 428 kts | 92° |
| 2026-04-21 01:12 | -3.06815 | -59.15272 | 19705 ft | 430 kts | 92° |
| 2026-04-21 01:12 | -3.06919 | -59.12274 | 20051 ft | 432 kts | 92° |
| 2026-04-21 01:12 | -3.07024 | -59.09262 | 20385 ft | 434 kts | 92° |
| 2026-04-21 01:12 | -3.07128 | -59.06234 | 20712 ft | 436 kts | 92° |
| 2026-04-21 01:13 | -3.07233 | -59.03196 | 21039 ft | 438 kts | 92° |
| 2026-04-21 01:13 | -3.07337 | -59.00190 | 21373 ft | 439 kts | 92° |
| 2026-04-21 01:13 | -3.07443 | -58.97128 | 21692 ft | 440 kts | 92° |
| 2026-04-21 01:13 | -3.07549 | -58.94058 | 21982 ft | 442 kts | 92° |
| 2026-04-21 01:14 | -3.07655 | -58.90975 | 22255 ft | 444 kts | 92° |
| 2026-04-21 01:14 | -3.07762 | -58.87874 | 22550 ft | 446 kts | 91° |
| 2026-04-21 01:14 | -3.07869 | -58.84764 | 22834 ft | 448 kts | 91° |
| 2026-04-21 01:14 | -3.07976 | -58.81644 | 23099 ft | 450 kts | 91° |
| 2026-04-21 01:15 | -3.08084 | -58.78507 | 23362 ft | 451 kts | 91° |
| 2026-04-21 01:15 | -3.08192 | -58.75364 | 23604 ft | 453 kts | 91° |
| 2026-04-21 01:15 | -3.08300 | -58.72206 | 23822 ft | 454 kts | 91° |
| 2026-04-21 01:15 | -3.08409 | -58.69044 | 24050 ft | 455 kts | 91° |
| 2026-04-21 01:16 | -3.08517 | -58.65877 | 24265 ft | 456 kts | 91° |
| 2026-04-21 01:16 | -3.08625 | -58.62735 | 24481 ft | 457 kts | 91° |
| 2026-04-21 01:16 | -3.08733 | -58.59554 | 24694 ft | 458 kts | 91° |
| 2026-04-21 01:16 | -3.08842 | -58.56363 | 24891 ft | 459 kts | 91° |
| 2026-04-21 01:17 | -3.08952 | -58.53151 | 25094 ft | 460 kts | 91° |
| 2026-04-21 01:17 | -3.09061 | -58.49946 | 25291 ft | 462 kts | 91° |
| 2026-04-21 01:17 | -3.09171 | -58.46729 | 25487 ft | 462 kts | 91° |
| 2026-04-21 01:17 | -3.09280 | -58.43511 | 25694 ft | 463 kts | 91° |
| 2026-04-21 01:18 | -3.09390 | -58.40289 | 25888 ft | 464 kts | 91° |
| 2026-04-21 01:18 | -3.09490 | -58.37059 | 26056 ft | 465 kts | 90° |
| 2026-04-21 01:18 | -3.09114 | -58.33842 | 26179 ft | 467 kts | 76° |
| 2026-04-21 01:18 | -3.08290 | -58.30707 | 26403 ft | 467 kts | 75° |
| 2026-04-21 01:19 | -3.07474 | -58.27603 | 26573 ft | 468 kts | 75° |
| 2026-04-21 01:19 | -3.06658 | -58.24444 | 26721 ft | 469 kts | 76° |
| 2026-04-21 01:19 | -3.05855 | -58.21276 | 26874 ft | 470 kts | 76° |
| 2026-04-21 01:19 | -3.05060 | -58.18094 | 27027 ft | 472 kts | 76° |
| 2026-04-21 01:20 | -3.04269 | -58.14898 | 27163 ft | 473 kts | 76° |
| 2026-04-21 01:20 | -3.03481 | -58.11695 | 27323 ft | 474 kts | 76° |
| 2026-04-21 01:20 | -3.02693 | -58.08489 | 27487 ft | 474 kts | 76° |
| 2026-04-21 01:20 | -3.01904 | -58.05279 | 27650 ft | 475 kts | 76° |
| 2026-04-21 01:21 | -3.01115 | -58.02071 | 27852 ft | 474 kts | 76° |
| 2026-04-21 01:21 | -3.00327 | -57.98869 | 28115 ft | 473 kts | 76° |
| 2026-04-21 01:21 | -2.99542 | -57.95682 | 28380 ft | 471 kts | 76° |
| 2026-04-21 01:21 | -2.98769 | -57.92546 | 28616 ft | 470 kts | 76° |
| 2026-04-21 01:22 | -2.97985 | -57.89367 | 28819 ft | 471 kts | 77° |
| 2026-04-21 01:22 | -2.97201 | -57.86186 | 29050 ft | 470 kts | 77° |
| 2026-04-21 01:22 | -2.96416 | -57.83005 | 29330 ft | 469 kts | 77° |
| 2026-04-21 01:22 | -2.95637 | -57.79846 | 29624 ft | 467 kts | 77° |
| 2026-04-21 01:23 | -2.94859 | -57.76689 | 29908 ft | 466 kts | 77° |
| 2026-04-21 01:23 | -2.94083 | -57.73546 | 30132 ft | 465 kts | 77° |
| 2026-04-21 01:23 | -2.93309 | -57.70407 | 30333 ft | 465 kts | 77° |
| 2026-04-21 01:23 | -2.92534 | -57.67267 | 30571 ft | 464 kts | 77° |
| 2026-04-21 01:24 | -2.91762 | -57.64140 | 30804 ft | 463 kts | 76° |
| 2026-04-21 01:24 | -2.90989 | -57.61007 | 30972 ft | 464 kts | 76° |
| 2026-04-21 01:24 | -2.90226 | -57.57914 | 31177 ft | 464 kts | 76° |
| 2026-04-21 01:24 | -2.89453 | -57.54784 | 31451 ft | 462 kts | 76° |
| 2026-04-21 01:25 | -2.88684 | -57.51667 | 31731 ft | 461 kts | 76° |
| 2026-04-21 01:25 | -2.87916 | -57.48558 | 31978 ft | 460 kts | 76° |
| 2026-04-21 01:25 | -2.87150 | -57.45456 | 32209 ft | 460 kts | 76° |
| 2026-04-21 01:25 | -2.86384 | -57.42353 | 32457 ft | 459 kts | 76° |
| 2026-04-21 01:26 | -2.85618 | -57.39253 | 32728 ft | 458 kts | 76° |
| 2026-04-21 01:26 | -2.84853 | -57.36157 | 32950 ft | 457 kts | 77° |
| 2026-04-21 01:26 | -2.83319 | -57.29948 | 32935 ft | 460 kts | 77° |
| 2026-04-21 01:27 | -2.81787 | -57.23751 | 32936 ft | 457 kts | 77° |
| 2026-04-21 01:27 | -2.80263 | -57.17585 | 32936 ft | 456 kts | 77° |
| 2026-04-21 01:28 | -2.78754 | -57.11482 | 32938 ft | 455 kts | 77° |
| 2026-04-21 01:28 | -2.77236 | -57.05344 | 32937 ft | 454 kts | 77° |
| 2026-04-21 01:29 | -2.75719 | -56.99211 | 32941 ft | 455 kts | 77° |
| 2026-04-21 01:29 | -2.74199 | -56.93069 | 32941 ft | 456 kts | 77° |
| 2026-04-21 01:30 | -2.72672 | -56.86898 | 32944 ft | 457 kts | 77° |
| 2026-04-21 01:30 | -2.71141 | -56.80712 | 32936 ft | 459 kts | 77° |
| 2026-04-21 01:31 | -2.69613 | -56.74540 | 32948 ft | 461 kts | 77° |
| 2026-04-21 01:31 | -2.68068 | -56.68305 | 32944 ft | 462 kts | 77° |
| 2026-04-21 01:32 | -2.66518 | -56.62045 | 32946 ft | 464 kts | 77° |
| 2026-04-21 01:32 | -2.64961 | -56.55759 | 32376 ft | 472 kts | 77° |
| 2026-04-21 01:33 | -2.64172 | -56.52574 | 31720 ft | 470 kts | 77° |
| 2026-04-21 01:33 | -2.63384 | -56.49397 | 30975 ft | 471 kts | 77° |
| 2026-04-21 01:33 | -2.62595 | -56.46211 | 30176 ft | 473 kts | 77° |
| 2026-04-21 01:33 | -2.61803 | -56.43015 | 29238 ft | 475 kts | 77° |
| 2026-04-21 01:34 | -2.61190 | -56.39768 | 28292 ft | 476 kts | 83° |
| 2026-04-21 01:34 | -2.60847 | -56.36488 | 27204 ft | 471 kts | 86° |
| 2026-04-21 01:34 | -2.60583 | -56.33253 | 25875 ft | 473 kts | 85° |
| 2026-04-21 01:34 | -2.60278 | -56.30029 | 25260 ft | 458 kts | 85° |
| 2026-04-21 01:35 | -2.59938 | -56.26893 | 24585 ft | 447 kts | 84° |
| 2026-04-21 01:35 | -2.59583 | -56.23837 | 23752 ft | 440 kts | 84° |
| 2026-04-21 01:35 | -2.59231 | -56.20823 | 22987 ft | 434 kts | 84° |
| 2026-04-21 01:35 | -2.58879 | -56.17805 | 22306 ft | 441 kts | 84° |
| 2026-04-21 01:36 | -2.58525 | -56.14753 | 21643 ft | 452 kts | 84° |
| 2026-04-21 01:36 | -2.58162 | -56.11616 | 20951 ft | 448 kts | 83° |
| 2026-04-21 01:36 | -2.57810 | -56.08567 | 20288 ft | 433 kts | 83° |
| 2026-04-21 01:36 | -2.57469 | -56.05620 | 19659 ft | 420 kts | 83° |
| 2026-04-21 01:37 | -2.57138 | -56.02748 | 19029 ft | 411 kts | 83° |
| 2026-04-21 01:37 | -2.56814 | -55.99937 | 18417 ft | 403 kts | 83° |
| 2026-04-21 01:37 | -2.56497 | -55.97189 | 17770 ft | 404 kts | 83° |
| 2026-04-21 01:37 | -2.56168 | -55.94340 | 17135 ft | 420 kts | 83° |
| 2026-04-21 01:38 | -2.55828 | -55.91398 | 16475 ft | 425 kts | 83° |
| 2026-04-21 01:38 | -2.55495 | -55.88511 | 15818 ft | 412 kts | 83° |
| 2026-04-21 01:38 | -2.55167 | -55.85667 | 15202 ft | 409 kts | 83° |
| 2026-04-21 01:38 | -2.54840 | -55.82841 | 14563 ft | 408 kts | 83° |
| 2026-04-21 01:39 | -2.54515 | -55.80024 | 13941 ft | 406 kts | 83° |
| 2026-04-21 01:39 | -2.54191 | -55.77224 | 13258 ft | 405 kts | 83° |
| 2026-04-21 01:39 | -2.53869 | -55.74437 | 12619 ft | 402 kts | 83° |
| 2026-04-21 01:39 | -2.53553 | -55.71701 | 12007 ft | 399 kts | 83° |
| 2026-04-21 01:40 | -2.53236 | -55.68959 | 11413 ft | 396 kts | 83° |
| 2026-04-21 01:40 | -2.52925 | -55.66268 | 11232 ft | 382 kts | 83° |
| 2026-04-21 01:40 | -2.52625 | -55.63672 | 11053 ft | 369 kts | 83° |
| 2026-04-21 01:40 | -2.52334 | -55.61163 | 10884 ft | 358 kts | 83° |
| 2026-04-21 01:41 | -2.52053 | -55.58730 | 10729 ft | 347 kts | 83° |
| 2026-04-21 01:41 | -2.51780 | -55.56369 | 10579 ft | 336 kts | 84° |
| 2026-04-21 01:41 | -2.51514 | -55.54076 | 10438 ft | 327 kts | 84° |
| 2026-04-21 01:41 | -2.51256 | -55.51848 | 10305 ft | 318 kts | 84° |
| 2026-04-21 01:42 | -2.51006 | -55.49681 | 10173 ft | 309 kts | 84° |
| 2026-04-21 01:42 | -2.50761 | -55.47570 | 10042 ft | 301 kts | 84° |
| 2026-04-21 01:42 | -2.50528 | -55.45496 | 9749 ft | 300 kts | 84° |
| 2026-04-21 01:42 | -2.50298 | -55.43429 | 9444 ft | 298 kts | 84° |
| 2026-04-21 01:43 | -2.50072 | -55.41396 | 9144 ft | 297 kts | 84° |
| 2026-04-21 01:43 | -2.49845 | -55.39346 | 8847 ft | 295 kts | 84° |
| 2026-04-21 01:43 | -2.49618 | -55.37309 | 8548 ft | 294 kts | 84° |
| 2026-04-21 01:43 | -2.49394 | -55.35287 | 8259 ft | 292 kts | 84° |
| 2026-04-21 01:44 | -2.49170 | -55.33274 | 7972 ft | 290 kts | 84° |
| 2026-04-21 01:44 | -2.48946 | -55.31270 | 7679 ft | 289 kts | 84° |
| 2026-04-21 01:44 | -2.48724 | -55.29272 | 7389 ft | 288 kts | 84° |
| 2026-04-21 01:44 | -2.48503 | -55.27287 | 7105 ft | 286 kts | 84° |
| 2026-04-21 01:45 | -2.48282 | -55.25310 | 6816 ft | 285 kts | 84° |
| 2026-04-21 01:45 | -2.48063 | -55.23342 | 6530 ft | 284 kts | 84° |
| 2026-04-21 01:45 | -2.47845 | -55.21387 | 6232 ft | 283 kts | 84° |
| 2026-04-21 01:45 | -2.47630 | -55.19456 | 5942 ft | 282 kts | 84° |
| 2026-04-21 01:46 | -2.47414 | -55.17517 | 5649 ft | 280 kts | 84° |
| 2026-04-21 01:46 | -2.47198 | -55.15583 | 5363 ft | 279 kts | 84° |
| 2026-04-21 01:46 | -2.46984 | -55.13664 | 5086 ft | 277 kts | 84° |
| 2026-04-21 01:46 | -2.46773 | -55.11772 | 4811 ft | 269 kts | 84° |
| 2026-04-21 01:47 | -2.46568 | -55.09937 | 4526 ft | 261 kts | 84° |
| 2026-04-21 01:47 | -2.46369 | -55.08153 | 4249 ft | 254 kts | 84° |
| 2026-04-21 01:47 | -2.46176 | -55.06426 | 4006 ft | 245 kts | 84° |
| 2026-04-21 01:47 | -2.45995 | -55.04802 | 3907 ft | 231 kts | 84° |
| 2026-04-21 01:48 | -2.45822 | -55.03252 | 3803 ft | 218 kts | 84° |
| 2026-04-21 01:48 | -2.45658 | -55.01789 | 3728 ft | 203 kts | 84° |
| 2026-04-21 01:48 | -2.45524 | -55.00443 | 3628 ft | 187 kts | 86° |
| 2026-04-21 01:48 | -2.45415 | -54.99172 | 3561 ft | 182 kts | 84° |
| 2026-04-21 01:49 | -2.45254 | -54.97944 | 3535 ft | 172 kts | 82° |
| 2026-04-21 01:49 | -2.45078 | -54.96795 | 3388 ft | 162 kts | 81° |
| 2026-04-21 01:49 | -2.44898 | -54.95669 | 3172 ft | 164 kts | 81° |
| 2026-04-21 01:49 | -2.44718 | -54.94555 | 2954 ft | 160 kts | 81° |
| 2026-04-21 01:50 | -2.44541 | -54.93464 | 2737 ft | 159 kts | 81° |
| 2026-04-21 01:50 | -2.44363 | -54.92372 | 2528 ft | 159 kts | 81° |
| 2026-04-21 01:50 | -2.44185 | -54.91276 | 2313 ft | 160 kts | 80° |
| 2026-04-21 01:50 | -2.44010 | -54.90195 | 2102 ft | 160 kts | 81° |
| 2026-04-21 01:51 | -2.43833 | -54.89102 | 1890 ft | 158 kts | 81° |
| 2026-04-21 01:51 | -2.43657 | -54.88019 | 1684 ft | 158 kts | 80° |
| 2026-04-21 01:51 | -2.43481 | -54.86935 | 1468 ft | 158 kts | 80° |
| 2026-04-21 01:51 | -2.43305 | -54.85854 | 1258 ft | 157 kts | 81° |
| 2026-04-21 01:52 | -2.43130 | -54.84775 | 1050 ft | 156 kts | 80° |
| 2026-04-21 01:52 | -2.42781 | -54.82619 | 668 ft | 157 kts | 81° |
| 2026-04-21 01:52 | -2.42618 | -54.81541 | 465 ft | 157 kts | 79° |
| 2026-04-21 01:53 | -2.42429 | -54.80470 | 278 ft | 156 kts | 82° |
| 2026-04-21 01:53 | -2.42260 | -54.79423 | 205 ft | 132 kts | 81° |
| 2026-04-21 01:53 | -2.42179 | -54.78911 | 207 ft | 22 kts | 81° |
| 2026-04-21 01:53 | -2.42172 | -54.78867 | 216 ft | 13 kts | 81° |
| 2026-04-21 01:54 | -2.42208 | -54.78732 | 214 ft | 29 kts | 129° |
| 2026-04-21 01:54 | -2.42323 | -54.78622 | 207 ft | 13 kts | 139° |
| 2026-04-21 01:54 | -2.42398 | -54.78572 | 205 ft | 9 kts | 127° |
| 2026-04-21 01:54 | -2.42399 | -54.78571 | 204 ft | 0 kts | 131° |